Time;durP1;ratioP1;P1;durP2;ratioP2;P2;SDS_P1;SDS_P2;PMS_P1;PMS_P2;Temp;Humidity;BMP_temperature;BMP_pressure;BME280_temperature;BME280_humidity;BME280_pressure;Samples;Min_cycle;Max_cycle;Signal;HPM_P1;HPM_P2
2024/01/12 00:00:52;;;;;;;2.50;1.50;;;;;;;-10.13;100.00;98215.56;5105371;27;20176;-77
2024/01/12 00:03:18;;;;;;;1.47;1.37;;;;;;;-10.18;100.00;98217.47;5120756;27;20635;-76
2024/01/12 00:05:45;;;;;;;2.47;1.60;;;;;;;-10.20;100.00;98212.41;5057535;28;20291;-77
2024/01/12 00:08:11;;;;;;;2.40;1.70;;;;;;;-10.18;100.00;98218.31;5024977;28;20150;-78
2024/01/12 00:10:37;;;;;;;1.70;1.60;;;;;;;-10.16;100.00;98215.69;5008875;28;20423;-75
2024/01/12 00:13:07;;;;;;;1.63;1.53;;;;;;;-10.19;100.00;98226.91;5024059;28;20083;-74
2024/01/12 00:15:35;;;;;;;3.00;1.93;;;;;;;-10.26;100.00;98212.69;5039866;28;20040;-75
2024/01/12 00:18:00;;;;;;;2.10;1.70;;;;;;;-10.31;100.00;98204.34;5040506;28;20310;-75
2024/01/12 00:20:26;;;;;;;3.07;1.70;;;;;;;-10.38;100.00;98204.66;5025895;28;20040;-75
2024/01/12 00:22:56;;;;;;;1.70;1.60;;;;;;;-10.39;100.00;98216.66;5011624;28;20048;-77
2024/01/12 00:25:22;;;;;;;2.10;1.77;;;;;;;-10.41;100.00;98208.19;5043170;28;20060;-77
2024/01/12 00:27:48;;;;;;;3.57;1.70;;;;;;;-10.45;100.00;98223.78;5029040;28;20305;-76
2024/01/12 00:30:14;;;;;;;3.10;1.70;;;;;;;-10.51;100.00;98203.50;5009551;28;20374;-77
2024/01/12 00:32:41;;;;;;;3.00;2.00;;;;;;;-10.55;100.00;98207.09;5010634;28;20349;-78
2024/01/12 00:35:07;;;;;;;4.27;1.80;;;;;;;-10.52;100.00;98218.06;5006162;28;20053;-83
2024/01/12 00:37:32;;;;;;;1.97;1.83;;;;;;;-10.55;100.00;98205.38;5009018;28;20280;-81
2024/01/12 00:39:58;;;;;;;3.73;2.00;;;;;;;-10.56;100.00;98233.66;5018117;28;20276;-75
2024/01/12 00:42:24;;;;;;;2.23;1.67;;;;;;;-10.54;100.00;98226.72;5045836;28;20063;-82
2024/01/12 00:44:49;;;;;;;1.77;1.60;;;;;;;-10.54;100.00;98214.72;5040391;28;20116;-79
2024/01/12 00:47:15;;;;;;;2.47;1.73;;;;;;;-10.56;100.00;98224.22;5042588;28;20431;-75
2024/01/12 00:49:41;;;;;;;4.33;1.90;;;;;;;-10.57;100.00;98237.09;5038827;28;20052;-74
2024/01/12 00:52:07;;;;;;;3.70;1.90;;;;;;;-10.61;100.00;98223.59;5039069;28;20052;-74
2024/01/12 00:54:32;;;;;;;3.30;1.93;;;;;;;-10.62;100.00;98222.75;5038655;28;20045;-74
2024/01/12 00:56:58;;;;;;;1.80;1.70;;;;;;;-10.61;100.00;98224.41;5038696;28;20064;-70
2024/01/12 00:59:24;;;;;;;2.00;1.80;;;;;;;-10.68;100.00;98222.16;5022451;28;20044;-74
2024/01/12 01:01:53;;;;;;;1.70;1.60;;;;;;;-10.66;100.00;98231.47;5035458;28;20053;-73
2024/01/12 01:04:19;;;;;;;1.80;1.70;;;;;;;-10.69;100.00;98233.31;4987559;28;20304;-74
2024/01/12 01:06:44;;;;;;;2.57;2.00;;;;;;;-10.73;100.00;98230.03;5002832;28;20284;-74
2024/01/12 01:09:10;;;;;;;2.07;1.87;;;;;;;-10.75;100.00;98216.44;5002489;28;20481;-74
2024/01/12 01:11:37;;;;;;;2.73;1.70;;;;;;;-10.68;100.00;98225.56;4986700;28;20048;-73
2024/01/12 01:14:03;;;;;;;2.43;1.87;;;;;;;-10.77;100.00;98231.06;5018862;28;20157;-74
2024/01/12 01:16:28;;;;;;;2.10;1.90;;;;;;;-10.75;100.00;98220.75;5005506;28;20801;-73
2024/01/12 01:18:54;;;;;;;2.60;1.73;;;;;;;-10.79;100.00;98235.44;5075485;28;20066;-74
2024/01/12 01:21:20;;;;;;;2.73;1.87;;;;;;;-10.77;100.00;98243.06;5063169;28;20079;-74
2024/01/12 01:23:46;;;;;;;2.03;1.83;;;;;;;-10.80;100.00;98232.94;5063138;28;20078;-73
2024/01/12 01:26:13;;;;;;;1.83;1.63;;;;;;;-10.78;100.00;98242.22;5044634;28;20321;-76
2024/01/12 01:28:40;;;;;;;2.07;1.87;;;;;;;-10.71;100.00;98241.09;5061771;28;20445;-77
2024/01/12 01:31:06;;;;;;;3.00;1.90;;;;;;;-10.69;100.00;98241.88;5044650;28;20284;-77
2024/01/12 01:33:32;;;;;;;1.77;1.53;;;;;;;-10.69;100.00;98241.88;5109353;27;20047;-76
2024/01/12 01:35:59;;;;;;;5.03;1.73;;;;;;;-10.66;100.00;98249.44;5083715;27;20296;-75
2024/01/12 01:38:27;;;;;;;2.10;1.70;;;;;;;-10.63;100.00;98254.44;5100959;27;20047;-77
2024/01/12 01:40:53;;;;;;;1.80;1.70;;;;;;;-10.61;100.00;98247.50;5100418;27;20289;-77
2024/01/12 01:43:19;;;;;;;2.20;2.00;;;;;;;-10.55;100.00;98249.00;5116738;27;20063;-77
2024/01/12 01:45:45;;;;;;;2.37;2.17;;;;;;;-10.55;100.00;98235.31;5116441;27;20050;-77
2024/01/12 01:48:12;;;;;;;3.60;2.03;;;;;;;-10.46;100.00;98251.16;5082309;27;20119;-77
2024/01/12 01:50:40;;;;;;;1.77;1.67;;;;;;;-10.50;100.00;98244.50;5074687;28;20189;-77
2024/01/12 01:53:07;;;;;;;3.90;1.80;;;;;;;-10.36;100.00;98247.31;5019187;28;20288;-78
2024/01/12 01:55:33;;;;;;;5.60;2.00;;;;;;;-10.43;100.00;98248.47;5018569;28;20057;-76
2024/01/12 01:58:00;;;;;;;1.87;1.70;;;;;;;-10.35;100.00;98249.00;5003158;28;20299;-75
2024/01/12 02:00:29;;;;;;;2.23;1.97;;;;;;;-10.31;100.00;98249.66;5003805;28;20095;-77
2024/01/12 02:02:55;;;;;;;2.07;1.90;;;;;;;-10.37;100.00;98253.34;5020069;28;20485;-77
2024/01/12 02:05:22;;;;;;;2.80;1.90;;;;;;;-10.27;100.00;98256.38;4986344;28;20402;-78
2024/01/12 02:07:48;;;;;;;2.27;1.67;;;;;;;-10.34;100.00;98247.25;5017946;28;20075;-78
2024/01/12 02:10:13;;;;;;;2.27;1.67;;;;;;;-10.34;100.00;98265.19;5002110;28;20287;-78
2024/01/12 02:12:39;;;;;;;1.97;1.83;;;;;;;-10.35;100.00;98259.25;5001573;28;20067;-77
2024/01/12 02:15:09;;;;;;;1.60;1.50;;;;;;;-10.29;100.00;98260.72;5018283;28;20081;-79
2024/01/12 02:17:36;;;;;;;1.67;1.57;;;;;;;-10.25;100.00;98257.13;4988055;28;20049;-79
2024/01/12 02:20:21;;;;;;;1.97;1.70;;;;;;;-10.33;100.00;98254.88;4997973;28;20283;-79
2024/01/12 02:22:47;;;;;;;2.40;1.40;;;;;;;-10.28;100.00;98258.09;4986927;28;20421;-80
2024/01/12 02:25:14;;;;;;;1.70;1.60;;;;;;;-10.19;100.00;98256.88;5057436;28;20060;-80
2024/01/12 02:27:43;;;;;;;2.27;1.70;;;;;;;-10.14;100.00;98250.63;5066141;28;20102;-79
2024/01/12 02:30:11;;;;;;;;;;;;;;;-9.95;100.00;98253.22;5014246;28;20392;-80
2024/01/12 02:32:36;;;;;;;1.63;1.53;;;;;;;-10.12;100.00;98248.00;5078453;28;20402;-80
2024/01/12 02:35:04;;;;;;;1.43;1.33;;;;;;;-9.99;100.00;98249.13;5080778;28;20043;-79
2024/01/12 02:37:30;;;;;;;3.37;1.50;;;;;;;-10.03;100.00;98250.13;5061272;28;20297;-73
2024/01/12 02:39:56;;;;;;;1.50;1.40;;;;;;;-9.98;100.00;98255.91;5078979;27;20295;-74
2024/01/12 02:42:22;;;;;;;1.80;1.70;;;;;;;-10.00;100.00;98245.72;5132214;27;20051;-74
2024/01/12 02:44:47;;;;;;;1.90;1.60;;;;;;;-9.91;100.00;98254.75;5081965;27;20041;-76
2024/01/12 02:47:13;;;;;;;2.73;1.57;;;;;;;-9.89;100.00;98235.81;5082110;27;20035;-76
2024/01/12 02:49:39;;;;;;;1.70;1.60;;;;;;;-9.84;100.00;98238.19;5132582;27;20051;-77
2024/01/12 02:52:05;;;;;;;2.77;1.70;;;;;;;-9.79;100.00;98247.34;5081869;28;20050;-72
2024/01/12 02:54:32;;;;;;;1.90;1.70;;;;;;;-9.76;100.00;98236.13;5099058;27;20482;-76
2024/01/12 02:56:58;;;;;;;1.67;1.50;;;;;;;-9.75;100.00;98242.91;5098178;27;20078;-78
2024/01/12 02:59:25;;;;;;;2.00;1.50;;;;;;;-9.75;100.00;98235.19;5063351;28;20308;-75
2024/01/12 03:01:52;;;;;;;1.60;1.50;;;;;;;-9.76;100.00;98236.13;5097216;27;20300;-78
2024/01/12 03:04:19;;;;;;;1.60;1.50;;;;;;;-9.77;100.00;98242.13;5064058;28;20285;-77
2024/01/12 03:06:47;;;;;;;2.00;1.83;;;;;;;-9.77;100.00;98254.97;5073292;28;20121;-79
2024/01/12 03:09:13;;;;;;;2.90;1.90;;;;;;;-9.78;100.00;98238.75;5040917;28;20281;-77
2024/01/12 03:11:41;;;;;;;2.17;1.80;;;;;;;-9.80;100.00;98232.00;5074649;28;20393;-76
2024/01/12 03:14:06;;;;;;;1.83;1.30;;;;;;;-9.81;100.00;98243.19;5025127;28;20036;-73
2024/01/12 03:16:32;;;;;;;1.77;1.67;;;;;;;-9.79;100.00;98236.25;5024401;28;20296;-74
2024/01/12 03:18:59;;;;;;;3.10;2.00;;;;;;;-9.78;100.00;98227.63;5054639;28;20054;-72
2024/01/12 03:21:24;;;;;;;1.50;1.40;;;;;;;-9.77;100.00;98219.88;5021153;28;20282;-73
2024/01/12 03:23:50;;;;;;;2.03;1.70;;;;;;;-9.74;100.00;98218.88;5038149;28;20133;-73
2024/01/12 03:26:16;;;;;;;1.70;1.60;;;;;;;-9.72;100.00;98220.50;5021210;28;20510;-74
2024/01/12 03:28:41;;;;;;;4.33;1.77;;;;;;;-9.70;100.00;98226.38;5038153;28;20147;-75
2024/01/12 03:31:07;;;;;;;1.60;1.50;;;;;;;-9.65;100.00;98215.91;5013933;28;20062;-72
2024/01/12 03:33:33;;;;;;;1.83;1.73;;;;;;;-9.62;100.00;98206.31;5071150;28;20058;-71
2024/01/12 03:35:59;;;;;;;1.83;1.50;;;;;;;-9.56;100.00;98207.81;5011176;28;20583;-71
2024/01/12 03:38:24;;;;;;;1.87;1.47;;;;;;;-9.52;100.00;98201.59;5071337;28;20111;-72
2024/01/12 03:40:52;;;;;;;2.07;1.77;;;;;;;-9.48;100.00;98209.09;5045312;28;20051;-77
2024/01/12 03:43:17;;;;;;;1.50;1.40;;;;;;;-9.47;100.00;98209.94;5061051;28;20047;-76
2024/01/12 03:45:43;;;;;;;1.70;1.60;;;;;;;-9.41;100.00;98209.66;5048099;28;20352;-71
2024/01/12 03:48:09;;;;;;;3.30;1.80;;;;;;;-9.41;100.00;98214.78;5097642;28;20043;-73
2024/01/12 03:50:34;;;;;;;1.70;1.60;;;;;;;-9.39;100.00;98223.25;5060562;28;20038;-72
2024/01/12 03:53:08;;;;;;;3.00;1.40;;;;;;;-9.24;100.00;98222.56;5078959;28;21525;-75
2024/01/12 03:55:35;;;;;;;3.53;1.97;;;;;;;-9.30;100.00;98226.22;5110184;28;20125;-78
2024/01/12 03:58:01;;;;;;;4.40;1.60;;;;;;;-9.23;100.00;98219.91;5096233;28;20395;-77
2024/01/12 04:00:26;;;;;;;2.03;1.70;;;;;;;-9.18;100.00;98230.78;5078908;28;20031;-66
2024/01/12 04:02:54;;;;;;;1.53;1.43;;;;;;;-9.12;100.00;98219.41;5094757;27;20457;-77
2024/01/12 04:05:20;;;;;;;1.97;1.57;;;;;;;-9.08;100.00;98221.75;5117815;27;20376;-74
2024/01/12 04:07:46;;;;;;;1.87;1.50;;;;;;;-9.06;100.00;98214.81;5082248;27;20372;-72
2024/01/12 04:10:13;;;;;;;1.67;1.50;;;;;;;-8.94;100.00;98214.22;5038924;28;20052;-72
2024/01/12 04:12:39;;;;;;;1.80;1.40;;;;;;;-9.01;100.00;98233.41;5039838;28;20122;-76
2024/01/12 04:15:07;;;;;;;1.60;1.50;;;;;;;-8.92;100.00;98227.81;5055212;28;20298;-73
2024/01/12 04:17:32;;;;;;;1.67;1.50;;;;;;;-8.98;100.00;98228.13;5074173;28;20388;-69
2024/01/12 04:19:58;;;;;;;2.77;1.60;;;;;;;-8.96;100.00;98234.03;5057554;28;20817;-71
2024/01/12 04:22:24;;;;;;;6.37;1.57;;;;;;;-8.89;100.00;98240.53;5074061;28;20032;-69
2024/01/12 04:24:50;;;;;;;1.97;1.77;;;;;;;-8.87;100.00;98246.44;5091978;28;20107;-75
2024/01/12 04:27:15;;;;;;;1.87;1.60;;;;;;;-8.84;100.00;98248.88;5074495;28;20043;-74
2024/01/12 04:29:41;;;;;;;1.60;1.50;;;;;;;-8.79;100.00;98242.69;5041249;28;20761;-76
2024/01/12 04:32:07;;;;;;;3.47;2.00;;;;;;;-8.79;100.00;98237.56;5038404;28;20044;-71
2024/01/12 04:34:36;;;;;;;3.63;2.30;;;;;;;-8.68;100.00;98227.53;5017973;28;20059;-74
2024/01/12 04:37:02;;;;;;;2.27;1.90;;;;;;;-8.77;100.00;98221.13;5020730;28;20494;-78
2024/01/12 04:39:27;;;;;;;1.93;1.73;;;;;;;-8.75;100.00;98224.47;5053057;28;20294;-74
2024/01/12 04:41:53;;;;;;;4.00;1.87;;;;;;;-8.73;100.00;98226.97;5070695;28;20074;-75
2024/01/12 04:44:19;;;;;;;1.63;1.53;;;;;;;-8.72;100.00;98208.03;5076152;28;20048;-72
2024/01/12 04:46:45;;;;;;;1.60;1.50;;;;;;;-8.70;100.00;98204.47;5073808;28;20139;-73
2024/01/12 04:49:11;;;;;;;1.80;1.70;;;;;;;-8.72;100.00;98197.75;5057313;28;20423;-71
2024/01/12 04:51:37;;;;;;;2.10;1.60;;;;;;;-8.69;100.00;98190.72;5072934;28;20286;-71
2024/01/12 04:54:03;;;;;;;3.67;1.70;;;;;;;-8.71;100.00;98204.53;5071514;28;20148;-68
2024/01/12 04:56:28;;;;;;;3.20;1.80;;;;;;;-8.69;100.00;98201.00;5055250;28;20130;-68
2024/01/12 04:58:54;;;;;;;1.97;1.70;;;;;;;-8.70;100.00;98191.59;5055444;28;20063;-68
2024/01/12 05:01:21;;;;;;;3.97;1.60;;;;;;;-8.68;100.00;98196.66;5089406;28;20059;-69
2024/01/12 05:03:48;;;;;;;2.07;1.70;;;;;;;-8.69;100.00;98210.47;5086582;28;20051;-66
2024/01/12 05:06:15;;;;;;;1.60;1.50;;;;;;;-8.69;100.00;98202.75;5085613;27;20365;-70
2024/01/12 05:08:41;;;;;;;1.77;1.60;;;;;;;-8.69;100.00;98195.88;5099060;27;20686;-69
2024/01/12 05:11:09;;;;;;;3.90;1.80;;;;;;;-8.68;100.00;98192.38;5082451;27;20281;-68
2024/01/12 05:14:07;;;;;;;2.67;1.50;;;;;;;-8.45;100.00;98199.78;5114493;27;20280;-70
2024/01/12 05:16:42;;;;;;;4.73;1.63;;;;;;;-8.55;100.00;98195.19;5131976;27;20375;-70
2024/01/12 05:19:08;;;;;;;6.30;1.60;;;;;;;-8.60;100.00;98210.00;5133562;27;20309;-73
2024/01/12 05:21:34;;;;;;;2.90;1.83;;;;;;;-8.60;100.00;98197.13;5115619;27;20291;-68
2024/01/12 05:24:00;;;;;;;5.67;1.73;;;;;;;-8.61;100.00;98214.34;5132477;27;20589;-68
2024/01/12 05:26:25;;;;;;;1.97;1.60;;;;;;;-8.58;100.00;98203.88;5115033;27;20062;-69
2024/01/12 05:28:53;;;;;;;3.60;1.70;;;;;;;-8.43;100.00;98207.44;5098198;27;20138;-71
2024/01/12 05:31:18;;;;;;;2.00;1.67;;;;;;;-8.53;100.00;98195.94;5132693;27;20559;-71
2024/01/12 05:33:44;;;;;;;2.17;1.67;;;;;;;-8.48;100.00;98201.66;5116644;27;20330;-67
2024/01/12 05:36:09;;;;;;;2.13;1.60;;;;;;;-8.46;100.00;98205.84;5097893;27;20370;-69
2024/01/12 05:38:35;;;;;;;2.47;1.63;;;;;;;-8.45;100.00;98202.34;5133544;27;20047;-72
2024/01/12 05:41:02;;;;;;;2.43;1.50;;;;;;;-8.51;100.00;98199.25;5099021;27;20107;-72
2024/01/12 05:43:27;;;;;;;2.03;1.60;;;;;;;-8.45;100.00;98202.34;5063380;27;20277;-70
2024/01/12 05:45:54;;;;;;;2.37;1.50;;;;;;;-8.33;100.00;98206.88;5097861;27;20039;-69
2024/01/12 05:48:20;;;;;;;1.57;1.40;;;;;;;-8.41;100.00;98203.84;5131839;27;20054;-68
2024/01/12 05:50:47;;;;;;;1.77;1.67;;;;;;;-8.33;100.00;98214.59;5131611;27;20289;-69
2024/01/12 05:53:13;;;;;;;2.23;1.70;;;;;;;-8.30;100.00;98190.47;5115131;27;20050;-70
2024/01/12 05:55:39;;;;;;;1.60;1.50;;;;;;;-8.33;100.00;98185.47;5097620;27;20281;-74
2024/01/12 05:58:05;;;;;;;4.13;1.60;;;;;;;-8.27;100.00;98196.28;5081495;27;20031;-69
2024/01/12 06:00:31;;;;;;;3.20;1.70;;;;;;;-8.23;100.00;98197.78;5131762;27;20524;-70
2024/01/12 06:02:56;;;;;;;3.20;1.50;;;;;;;-8.20;100.00;98191.63;5133069;27;20115;-70
2024/01/12 06:05:22;;;;;;;2.10;1.50;;;;;;;-8.16;100.00;98190.56;5097748;27;20139;-71
2024/01/12 06:07:48;;;;;;;1.77;1.60;;;;;;;-8.10;100.00;98197.97;5097129;27;20074;-68
2024/01/12 06:10:14;;;;;;;1.90;1.67;;;;;;;-8.07;100.00;98192.66;5096375;27;20466;-70
2024/01/12 06:12:39;;;;;;;1.60;1.50;;;;;;;-8.06;100.00;98202.88;5097072;27;20407;-72
2024/01/12 06:15:06;;;;;;;3.53;1.30;;;;;;;-8.02;100.00;98212.09;5132070;27;20283;-70
2024/01/12 06:17:34;;;;;;;2.30;1.70;;;;;;;-8.01;100.00;98208.59;5115097;27;20490;-70
2024/01/12 06:19:59;;;;;;;2.50;1.50;;;;;;;-7.97;100.00;98209.28;5080857;27;20596;-68
2024/01/12 06:22:25;;;;;;;2.93;1.40;;;;;;;-7.93;100.00;98210.81;5132299;27;20356;-68
2024/01/12 06:24:51;;;;;;;2.23;1.70;;;;;;;-7.94;100.00;98209.13;5097141;27;20030;-69
2024/01/12 06:27:16;;;;;;;3.40;1.70;;;;;;;-7.90;100.00;98208.91;5114206;27;20054;-70
2024/01/12 06:29:42;;;;;;;1.67;1.57;;;;;;;-7.90;100.00;98206.31;5131788;27;20068;-70
2024/01/12 06:32:08;;;;;;;1.50;1.40;;;;;;;-7.85;100.00;98214.66;5114696;27;20092;-71
2024/01/12 06:34:34;;;;;;;1.60;1.50;;;;;;;-7.83;100.00;98210.25;5114608;27;20304;-70
2024/01/12 06:36:59;;;;;;;1.50;1.40;;;;;;;-7.81;100.00;98217.91;5098553;27;20039;-70
2024/01/12 06:39:25;;;;;;;1.30;1.20;;;;;;;-7.78;100.00;98220.31;5133194;27;20046;-70
2024/01/12 06:41:52;;;;;;;1.93;1.50;;;;;;;-7.78;100.00;98207.44;5061587;28;20051;-69
2024/01/12 06:44:18;;;;;;;1.83;1.73;;;;;;;-7.69;100.00;98209.53;5092584;28;20043;-69
2024/01/12 06:46:44;;;;;;;2.10;1.50;;;;;;;-7.60;100.00;98215.03;5092061;28;20375;-71
2024/01/12 06:49:10;;;;;;;3.33;1.60;;;;;;;-7.57;100.00;98214.88;5109608;28;20493;-70
2024/01/12 06:51:36;;;;;;;1.50;1.30;;;;;;;-7.50;100.00;98205.03;5092583;28;20312;-69
2024/01/12 06:54:02;;;;;;;1.80;1.50;;;;;;;-7.36;100.00;98218.84;5092655;28;20735;-70
2024/01/12 06:56:28;;;;;;;1.90;1.40;;;;;;;-7.34;100.00;98206.72;5092432;28;20063;-69
2024/01/12 06:58:55;;;;;;;3.27;1.50;;;;;;;-7.26;100.00;98201.16;5108848;28;20296;-71
2024/01/12 07:01:22;;;;;;;3.30;1.70;;;;;;;-7.22;100.00;98208.63;5092031;28;20289;-70
2024/01/12 07:03:48;;;;;;;1.60;1.50;;;;;;;-7.24;100.00;98218.19;5075435;28;20290;-70
2024/01/12 07:06:13;;;;;;;1.60;1.50;;;;;;;-7.17;100.00;98208.38;5092438;28;20281;-70
2024/01/12 07:08:39;;;;;;;1.80;1.37;;;;;;;-7.11;100.00;98213.19;5058608;28;20050;-73
2024/01/12 07:11:06;;;;;;;3.23;1.60;;;;;;;-6.98;100.00;98223.69;5075810;28;20048;-70
2024/01/12 07:13:32;;;;;;;1.80;1.70;;;;;;;-6.98;100.00;98234.84;5071781;28;20402;-71
2024/01/12 07:15:59;;;;;;;2.63;1.70;;;;;;;-6.93;100.00;98234.59;5096260;28;21178;-70
2024/01/12 07:18:25;;;;;;;2.00;1.60;;;;;;;-6.91;100.00;98236.16;5096603;28;20296;-70
2024/01/12 07:20:51;;;;;;;2.00;1.40;;;;;;;-6.88;100.00;98245.47;5113472;28;20054;-70
2024/01/12 07:23:16;;;;;;;2.50;1.80;;;;;;;-6.92;100.00;98242.25;5096492;28;20077;-70
2024/01/12 07:25:43;;;;;;;2.93;1.77;;;;;;;-6.78;100.00;98246.63;5109400;28;20039;-68
2024/01/12 07:28:13;;;;;;;1.83;1.43;;;;;;;-6.72;100.00;98247.13;5110635;28;20043;-72
2024/01/12 07:30:41;;;;;;;3.60;2.20;;;;;;;-6.86;100.00;98243.63;5113487;28;20047;-71
2024/01/12 07:33:06;;;;;;;2.27;1.60;;;;;;;-6.82;100.00;98248.53;5079798;28;20293;-73
2024/01/12 07:35:33;;;;;;;2.07;1.60;;;;;;;-6.81;100.00;98245.03;5078906;28;20055;-71
2024/01/12 07:37:59;;;;;;;1.73;1.63;;;;;;;-6.80;100.00;98248.44;5064421;27;20051;-71
2024/01/12 07:40:29;;;;;;;2.60;1.70;;;;;;;-6.79;100.00;98250.09;5082765;27;20097;-72
2024/01/12 07:42:54;;;;;;;2.47;1.70;;;;;;;-6.77;100.00;98251.69;5065596;27;20153;-70
2024/01/12 07:45:23;;;;;;;2.80;1.87;;;;;;;-6.56;100.00;98259.97;5148300;27;20378;-72
2024/01/12 07:47:58;;;;;;;4.60;1.83;;;;;;;-6.57;100.00;98259.16;5076263;28;20055;-72
2024/01/12 07:50:25;;;;;;;1.97;1.63;;;;;;;-6.63;100.00;98272.41;5060406;28;20484;-72
2024/01/12 07:52:50;;;;;;;1.83;1.60;;;;;;;-6.57;100.00;98284.97;5061069;28;20116;-73
2024/01/12 07:55:17;;;;;;;2.30;1.50;;;;;;;-6.53;100.00;98288.22;5058935;28;20054;-71
2024/01/12 07:57:43;;;;;;;1.60;1.50;;;;;;;-6.51;100.00;98291.53;5055266;28;20531;-73
2024/01/12 08:00:11;;;;;;;1.63;1.40;;;;;;;-6.48;100.00;98289.63;5039424;28;20052;-74
2024/01/12 08:02:40;;;;;;;1.67;1.57;;;;;;;-6.48;100.00;98309.44;5056930;28;20044;-74
2024/01/12 08:05:07;;;;;;;2.30;1.70;;;;;;;-6.49;100.00;98297.44;5056411;28;20048;-75
2024/01/12 08:07:32;;;;;;;2.03;1.33;;;;;;;-6.53;100.00;98298.56;5023358;28;20136;-72
2024/01/12 08:09:58;;;;;;;1.47;1.37;;;;;;;-6.50;100.00;98298.38;5055682;28;20052;-73
2024/01/12 08:12:26;;;;;;;3.13;1.83;;;;;;;-6.38;100.00;98306.25;5054261;28;20071;-73
2024/01/12 08:14:53;;;;;;;1.50;1.40;;;;;;;-6.30;100.00;98306.66;5006775;28;20506;-74
2024/01/12 08:17:19;;;;;;;2.83;1.40;;;;;;;-6.14;100.00;98307.47;5038689;28;20060;-68
2024/01/12 08:19:46;;;;;;;1.50;1.40;;;;;;;-5.82;100.00;98319.34;5055779;28;20132;-74
2024/01/12 08:22:15;;;;;;;2.63;1.40;;;;;;;-5.39;100.00;98317.59;5042106;28;20048;-73
2024/01/12 08:24:42;;;;;;;1.43;1.33;;;;;;;-4.91;100.00;98324.97;5059631;28;20040;-74
2024/01/12 08:27:08;;;;;;;2.00;1.53;;;;;;;-4.63;100.00;98317.16;5026723;28;20040;-73
2024/01/12 08:29:33;;;;;;;3.73;1.80;;;;;;;-4.19;100.00;98335.88;5026079;28;20055;-74
2024/01/12 08:31:59;;;;;;;2.30;1.80;;;;;;;-3.81;100.00;98331.59;5059233;28;20032;-74
2024/01/12 08:34:25;;;;;;;2.33;1.40;;;;;;;-3.37;100.00;98338.19;5064928;28;20062;-74
2024/01/12 08:36:51;;;;;;;2.07;1.57;;;;;;;-3.14;100.00;98327.06;5080735;28;20050;-74
2024/01/12 08:39:18;;;;;;;1.93;1.33;;;;;;;-2.88;100.00;98339.91;5096696;28;20044;-74
2024/01/12 08:41:46;;;;;;;1.50;1.40;;;;;;;-3.01;100.00;98353.84;5061830;28;20052;-74
2024/01/12 08:44:11;;;;;;;1.83;1.40;;;;;;;-3.10;100.00;98349.28;5057669;28;20401;-75
2024/01/12 08:46:37;;;;;;;1.73;1.30;;;;;;;-3.10;100.00;98362.25;5075870;28;20086;-75
2024/01/12 08:49:03;;;;;;;2.17;1.43;;;;;;;-3.02;100.00;98354.78;5028624;28;20209;-75
2024/01/12 08:51:29;;;;;;;3.17;1.60;;;;;;;-2.83;100.00;98361.19;5062804;28;20054;-76
2024/01/12 08:53:55;;;;;;;1.70;1.40;;;;;;;-2.62;100.00;98364.91;5013040;28;20067;-75
2024/01/12 08:56:21;;;;;;;1.30;1.20;;;;;;;-2.34;100.00;98367.19;5079151;28;20066;-74
2024/01/12 08:58:47;;;;;;;1.70;1.50;;;;;;;-2.08;100.00;98354.94;5059944;28;20071;-74
2024/01/12 09:01:16;;;;;;;1.50;1.27;;;;;;;-1.92;100.00;98342.47;5026599;28;20470;-75
2024/01/12 09:03:41;;;;;;;1.97;1.70;;;;;;;-1.80;100.00;98354.59;5027235;28;20031;-76
2024/01/12 09:06:07;;;;;;;1.27;1.13;;;;;;;-1.57;100.00;98358.94;5019588;28;20060;-69
2024/01/12 09:08:33;;;;;;;2.97;1.20;;;;;;;-1.45;100.00;98360.63;5003015;28;20049;-73
2024/01/12 09:11:04;;;;;;;1.37;1.27;;;;;;;-1.18;100.00;98368.09;5022838;28;20053;-74
2024/01/12 09:13:36;;;;;;;1.40;1.30;;;;;;;-0.94;100.00;98361.84;5016843;28;20045;-75
2024/01/12 09:16:02;;;;;;;1.20;1.20;;;;;;;-0.50;100.00;98377.50;5003484;28;20076;-77
2024/01/12 09:18:28;;;;;;;1.40;1.30;;;;;;;0.01;100.00;98382.97;5028085;28;20258;-82
2024/01/12 09:20:54;;;;;;;1.67;1.30;;;;;;;0.51;100.00;98389.31;5060665;28;20095;-74
2024/01/12 09:23:20;;;;;;;2.80;1.30;;;;;;;1.02;100.00;98390.19;5042215;28;20383;-74
2024/01/12 09:25:47;;;;;;;1.90;1.50;;;;;;;1.57;100.00;98390.59;5043849;28;20035;-73
2024/01/12 09:28:13;;;;;;;1.97;1.47;;;;;;;1.96;100.00;98390.69;5063493;28;20048;-78
2024/01/12 09:30:39;;;;;;;1.50;1.40;;;;;;;2.41;100.00;98410.22;5059002;28;20146;-80
2024/01/12 09:33:07;;;;;;;1.95;1.30;;;;;;;2.87;100.00;98402.47;5075324;28;20044;-82
2024/01/12 09:35:35;;;;;;;3.17;1.83;;;;;;;2.88;100.00;98409.34;5057361;28;20051;-81
2024/01/12 09:38:01;;;;;;;1.63;1.50;;;;;;;2.93;100.00;98415.84;5075631;28;20055;-82
2024/01/12 09:40:28;;;;;;;1.63;1.48;;;;;;;3.07;100.00;98406.72;5075615;28;20066;-80
2024/01/12 09:42:57;;;;;;;1.67;1.37;;;;;;;3.02;100.00;98411.56;5053410;28;20075;-76
2024/01/12 09:45:23;;;;;;;1.10;1.10;;;;;;;3.00;100.00;98409.06;5115179;27;20054;-82
2024/01/12 09:47:49;;;;;;;1.65;1.30;;;;;;;2.97;100.00;98408.53;5081803;27;20051;-76
2024/01/12 09:50:16;;;;;;;1.60;1.30;;;;;;;2.82;100.00;98420.41;5115197;27;20467;-76
2024/01/12 09:52:41;;;;;;;2.73;1.70;;;;;;;2.52;100.00;98421.38;5078231;28;20487;-76
2024/01/12 09:55:08;;;;;;;2.90;1.97;;;;;;;2.33;100.00;98425.78;5095460;28;20050;-76
2024/01/12 09:57:36;;;;;;;1.63;1.43;;;;;;;2.49;100.00;98411.16;5078530;28;20138;-80
2024/01/12 10:00:07;;;;;;;1.40;1.30;;;;;;;2.71;100.00;98421.38;5085145;28;20059;-81
2024/01/12 10:02:34;;;;;;;1.48;1.33;;;;;;;2.99;100.00;98407.44;5096773;28;20046;-75
2024/01/12 10:05:06;;;;;;;1.92;1.70;;;;;;;3.46;100.00;98401.22;5100304;28;20062;-82
2024/01/12 10:07:33;;;;;;;1.65;1.38;;;;;;;3.72;100.00;98421.56;5098690;28;20055;-80
2024/01/12 10:10:00;;;;;;;1.30;1.20;;;;;;;4.13;100.00;98416.66;5095522;28;20538;-78
2024/01/12 10:12:26;;;;;;;1.45;1.10;;;;;;;4.34;100.00;98422.47;5112015;27;20130;-81
2024/01/12 10:15:01;;;;;;;1.40;1.30;;;;;;;4.52;100.00;98415.41;5095998;27;20111;-79
2024/01/12 10:17:30;;;;;;;2.03;1.40;;;;;;;4.43;100.00;98426.00;5088907;28;20055;-77
2024/01/12 10:20:01;;;;;;;1.33;1.10;;;;;;;4.05;100.00;98428.84;5073872;28;20137;-77
2024/01/12 10:22:28;;;;;;;1.40;1.30;;;;;;;3.72;100.00;98426.81;5058217;28;20055;-79
2024/01/12 10:25:03;;;;;;;2.05;1.60;;;;;;;3.67;100.00;98413.28;5041611;28;20149;-79
2024/01/12 10:27:33;;;;;;;1.75;1.60;;;;;;;3.59;100.00;98421.06;5056651;28;20059;-78
2024/01/12 10:29:59;;;;;;;1.88;1.23;;;;;;;3.46;100.00;98424.00;5039803;28;20048;-79
2024/01/12 10:32:25;;;;;;;1.50;1.30;;;;;;;3.41;100.00;98419.19;5039600;28;20056;-78
2024/01/12 10:34:55;;;;;;;1.50;1.40;;;;;;;3.40;100.00;98430.66;5072392;28;20066;-80
2024/01/12 10:37:21;;;;;;;1.30;1.20;;;;;;;3.17;100.00;98424.09;5041074;28;20151;-80
2024/01/12 10:39:50;;;;;;;1.80;1.50;;;;;;;2.68;100.00;98433.94;5036324;28;20110;-78
2024/01/12 10:42:21;;;;;;;1.50;1.40;;;;;;;1.94;100.00;98437.97;5055400;28;20086;-76
2024/01/12 10:44:51;;;;;;;2.27;1.30;;;;;;;1.38;100.00;98448.06;5072799;28;20059;-78
2024/01/12 10:47:22;;;;;;;1.63;1.33;;;;;;;0.97;100.00;98434.22;5057322;28;20062;-83
2024/01/12 10:49:57;;;;;;;1.70;1.60;;;;;;;0.72;100.00;98445.88;5073412;28;20511;-74
2024/01/12 10:52:45;;;;;;;1.97;1.70;;;;;;;0.74;100.00;98449.16;5056222;28;20550;-81
2024/01/12 10:55:16;;;;;;;1.70;1.20;;;;;;;1.13;100.00;98445.03;5060767;28;20126;-79
2024/01/12 10:57:44;;;;;;;1.50;1.30;;;;;;;1.06;100.00;98451.75;5060302;28;20039;-73
2024/01/12 11:00:11;;;;;;;1.40;1.30;;;;;;;0.91;100.00;98458.22;5053117;28;20486;-75
2024/01/12 11:02:40;;;;;;;1.73;1.27;;;;;;;0.60;100.00;98456.47;5074359;28;20054;-77
2024/01/12 11:05:10;;;;;;;1.37;1.27;;;;;;;0.17;100.00;98440.00;5059870;28;20372;-78
2024/01/12 11:07:42;;;;;;;2.10;1.60;;;;;;;-0.02;100.00;98454.50;5057972;28;20043;-80
2024/01/12 11:10:08;;;;;;;1.77;1.20;;;;;;;-0.48;100.00;98463.44;5096992;28;20125;-78
2024/01/12 11:12:39;;;;;;;3.37;1.50;;;;;;;-0.64;100.00;98475.97;5098543;27;20099;-77
2024/01/12 11:15:07;;;;;;;1.65;1.30;;;;;;;-0.93;100.00;98453.88;5086509;27;20035;-80
2024/01/12 11:17:34;;;;;;;1.67;1.30;;;;;;;-1.21;100.00;98478.56;5115513;27;20051;-79
2024/01/12 11:20:12;;;;;;;2.00;1.50;;;;;;;-1.48;100.00;98483.19;5098476;28;20101;-77
2024/01/12 11:22:39;;;;;;;2.17;1.60;;;;;;;-1.92;100.00;98482.94;5098664;28;20530;-75